createdAt,value
2024-05-09T00:00:45.897Z,101493.88
2024-05-09T00:03:12.998Z,101496.84
2024-05-09T00:05:44.282Z,101496.97
2024-05-09T00:08:12.114Z,101494.13
2024-05-09T00:10:40.611Z,101495.06
2024-05-09T00:13:10.500Z,101499.72
2024-05-09T00:15:37.996Z,101494.50
2024-05-09T00:18:07.378Z,101495.63
2024-05-09T00:20:39.126Z,101493.56
2024-05-09T00:23:10.589Z,101497.41
2024-05-09T00:25:38.223Z,101486.75
2024-05-09T00:28:05.923Z,101492.38
2024-05-09T00:30:35.785Z,101496.50
2024-05-09T00:33:09.597Z,101493.81
2024-05-09T00:35:38.079Z,101499.78
2024-05-09T00:38:05.367Z,101489.25
2024-05-09T00:40:40.170Z,101492.84
2024-05-09T00:43:11.117Z,101493.53
2024-05-09T00:45:38.385Z,101484.13
2024-05-09T00:48:08.390Z,101489.66
2024-05-09T00:50:40.792Z,101489.56
2024-05-09T00:53:11.024Z,101477.69
2024-05-09T00:55:39.086Z,101475.13
2024-05-09T00:58:09.124Z,101483.00
2024-05-09T01:00:39.751Z,101472.19
2024-05-09T01:03:10.901Z,101479.31
2024-05-09T01:05:40.196Z,101481.22
2024-05-09T01:08:08.414Z,101480.88
2024-05-09T01:10:36.684Z,101472.44
2024-05-09T01:13:07.420Z,101472.91
2024-05-09T01:15:35.880Z,101477.59
2024-05-09T01:18:13.808Z,101471.84
2024-05-09T01:20:44.021Z,101471.94
2024-05-09T01:23:15.580Z,101465.81
2024-05-09T01:25:46.371Z,101461.47
2024-05-09T01:28:15.033Z,101458.78
2024-05-09T01:30:42.192Z,101463.47
2024-05-09T01:33:10.885Z,101463.91
2024-05-09T01:35:41.291Z,101464.72
2024-05-09T01:38:09.970Z,101467.09
2024-05-09T01:40:39.911Z,101469.53
2024-05-09T01:43:09.254Z,101475.06
2024-05-09T01:45:37.159Z,101468.75
2024-05-09T01:48:04.854Z,101462.06
2024-05-09T01:50:38.366Z,101466.53
2024-05-09T01:53:10.269Z,101466.72
2024-05-09T01:55:37.534Z,101466.00
2024-05-09T01:58:04.849Z,101462.38
2024-05-09T02:00:38.874Z,101459.78
2024-05-09T02:03:16.372Z,101460.16
2024-05-09T02:05:47.134Z,101457.44
2024-05-09T02:08:19.542Z,101447.72
2024-05-09T02:10:48.213Z,101455.25
2024-05-09T02:13:18.152Z,101452.53
2024-05-09T02:15:45.419Z,101455.94
2024-05-09T02:18:13.447Z,101449.41
2024-05-09T02:20:42.748Z,101452.56
2024-05-09T02:23:10.458Z,101459.59
2024-05-09T02:25:37.975Z,101453.38
2024-05-09T02:28:05.230Z,101449.63
2024-05-09T02:30:39.390Z,101450.91
2024-05-09T02:33:10.496Z,101457.47
2024-05-09T02:35:39.457Z,101451.28
2024-05-09T02:38:06.624Z,101447.41
2024-05-09T02:40:37.548Z,101453.50
2024-05-09T02:43:07.189Z,101455.75
2024-05-09T02:45:34.495Z,101452.00
2024-05-09T02:48:02.226Z,101459.50
2024-05-09T02:50:36.717Z,101460.56
2024-05-09T02:53:11.044Z,101455.41
2024-05-09T02:55:38.628Z,101460.22
2024-05-09T02:58:09.755Z,101452.47
2024-05-09T03:00:40.410Z,101456.47
2024-05-09T03:03:12.860Z,101464.34
2024-05-09T03:05:42.974Z,101457.63
2024-05-09T03:08:10.328Z,101458.94
2024-05-09T03:10:38.901Z,101462.22
2024-05-09T03:13:12.964Z,101471.13
2024-05-09T03:15:41.455Z,101458.34
2024-05-09T03:18:09.178Z,101463.50
2024-05-09T03:20:37.077Z,101464.69
2024-05-09T03:23:05.589Z,101458.94
2024-05-09T03:25:33.559Z,101462.84
2024-05-09T03:28:00.715Z,101463.66
2024-05-09T03:30:38.706Z,101472.78
2024-05-09T03:33:15.373Z,101464.91
2024-05-09T03:35:43.901Z,101467.19
2024-05-09T03:38:10.852Z,101461.53
2024-05-09T03:40:45.224Z,101459.06
2024-05-09T03:43:13.639Z,101458.94
2024-05-09T03:45:40.646Z,101462.13
2024-05-09T03:48:08.321Z,101460.34
2024-05-09T03:50:36.412Z,101464.56
2024-05-09T03:53:04.573Z,101454.97
2024-05-09T03:55:32.098Z,101459.66
2024-05-09T03:57:59.355Z,101472.00
2024-05-09T04:00:34.896Z,101465.88
2024-05-09T04:03:08.522Z,101459.31
2024-05-09T04:05:39.848Z,101471.38
2024-05-09T04:08:07.746Z,101464.34
2024-05-09T04:10:35.441Z,101465.88
2024-05-09T04:13:03.905Z,101471.16
2024-05-09T04:15:31.632Z,101479.28
2024-05-09T04:17:58.947Z,101469.88
2024-05-09T04:20:36.810Z,101473.88
2024-05-09T04:23:08.273Z,101483.38
2024-05-09T04:25:37.026Z,101481.97
2024-05-09T04:28:04.376Z,101481.00
2024-05-09T04:30:37.756Z,101485.50
2024-05-09T04:33:09.567Z,101477.25
2024-05-09T04:35:38.897Z,101487.25
2024-05-09T04:38:06.554Z,101476.09
2024-05-09T04:40:36.217Z,101481.03
2024-05-09T04:43:05.619Z,101487.00
2024-05-09T04:45:33.099Z,101490.53
2024-05-09T04:48:00.836Z,101485.72
2024-05-09T04:50:36.747Z,101474.53
2024-05-09T04:53:07.798Z,101475.75
2024-05-09T04:55:36.260Z,101486.31
2024-05-09T04:58:03.294Z,101486.75
2024-05-09T05:00:36.025Z,101486.03
2024-05-09T05:03:08.388Z,101484.53
2024-05-09T05:05:41.010Z,101491.22
2024-05-09T05:08:14.700Z,101490.84
2024-05-09T05:10:42.885Z,101495.31
2024-05-09T05:13:23.712Z,101492.41
2024-05-09T05:15:55.596Z,101494.88
2024-05-09T05:18:23.495Z,101497.19
2024-05-09T05:20:50.653Z,101498.25
2024-05-09T05:23:21.697Z,101499.69
2024-05-09T05:25:50.101Z,101501.91
2024-05-09T05:28:17.168Z,101505.56
2024-05-09T05:30:44.914Z,101497.94
2024-05-09T05:33:13.724Z,101509.09
2024-05-09T05:35:41.906Z,101510.13
2024-05-09T05:38:09.870Z,101504.38
2024-05-09T05:40:38.642Z,101503.09
2024-05-09T05:43:11.162Z,101512.47
2024-05-09T05:45:39.114Z,101508.44
2024-05-09T05:48:07.497Z,101508.47
2024-05-09T05:50:37.299Z,101508.34
2024-05-09T05:53:07.055Z,101519.38
2024-05-09T05:55:34.690Z,101524.53
2024-05-09T05:58:02.381Z,101522.09
2024-05-09T06:00:35.542Z,101526.56
2024-05-09T06:03:06.213Z,101525.91
2024-05-09T06:05:33.414Z,101517.97
2024-05-09T06:08:00.791Z,101524.13
2024-05-09T06:10:37.188Z,101525.41
2024-05-09T06:13:07.114Z,101525.69
2024-05-09T06:15:34.157Z,101523.00
2024-05-09T06:18:01.677Z,101522.06
2024-05-09T06:20:35.609Z,101527.13
2024-05-09T06:23:08.887Z,101536.09
2024-05-09T06:25:36.335Z,101528.00
2024-05-09T06:28:03.749Z,101528.75
2024-05-09T06:30:38.641Z,101523.69
2024-05-09T06:33:10.441Z,101521.28
2024-05-09T06:35:38.892Z,101518.50
2024-05-09T06:38:09.031Z,101518.28
2024-05-09T06:40:39.039Z,101522.66
2024-05-09T06:43:14.980Z,101510.97
2024-05-09T06:45:43.400Z,101520.19
2024-05-09T06:48:10.628Z,101522.38
2024-05-09T06:50:39.652Z,101523.13
2024-05-09T06:53:07.999Z,101519.13
2024-05-09T06:55:36.784Z,101523.50
2024-05-09T06:58:05.641Z,101523.44
2024-05-09T07:00:38.818Z,101528.34
2024-05-09T07:03:14.942Z,101522.50
2024-05-09T07:05:44.683Z,101525.72
2024-05-09T07:08:13.558Z,101533.50
2024-05-09T07:10:40.482Z,101525.28
2024-05-09T07:13:12.222Z,101523.38
2024-05-09T07:15:39.888Z,101527.19
2024-05-09T07:18:16.629Z,101527.53
2024-05-09T07:20:45.664Z,101533.47
2024-05-09T07:23:13.137Z,101520.31
2024-05-09T07:25:41.098Z,101523.03
2024-05-09T07:28:15.770Z,101520.13
2024-05-09T07:30:42.916Z,101516.22
2024-05-09T07:33:12.123Z,101510.44
2024-05-09T07:35:39.335Z,101519.78
2024-05-09T07:38:06.405Z,101517.53
2024-05-09T07:40:36.453Z,101518.56
2024-05-09T07:43:04.960Z,101512.84
2024-05-09T07:45:48.199Z,101509.03
2024-05-09T07:52:37.171Z,101509.22
2024-05-09T07:53:46.315Z,101500.84
2024-05-09T07:56:16.998Z,101507.97
2024-05-09T07:58:45.485Z,101512.59
2024-05-09T08:01:12.665Z,101501.72
2024-05-09T08:03:39.982Z,101515.22
2024-05-09T08:06:06.892Z,101509.53
2024-05-09T08:08:33.900Z,101507.59
2024-05-09T08:11:02.388Z,101504.06
2024-05-09T08:13:29.191Z,101498.09
2024-05-09T08:15:56.163Z,101509.00
2024-05-09T08:18:23.379Z,101495.38
2024-05-09T08:20:52.164Z,101485.84
2024-05-09T08:23:19.002Z,101492.69
2024-05-09T08:25:45.842Z,101495.94
2024-05-09T08:28:12.964Z,101497.03
2024-05-09T08:30:40.323Z,101491.03
2024-05-09T08:33:07.932Z,101487.75
2024-05-09T08:35:35.554Z,101494.28
2024-05-09T08:38:03.647Z,101480.09
2024-05-09T08:40:35.698Z,101480.44
2024-05-09T08:43:07.941Z,101478.47
2024-05-09T08:45:36.102Z,101478.16
2024-05-09T08:48:06.381Z,101472.59
2024-05-09T08:50:38.791Z,101482.75
2024-05-09T08:53:08.494Z,101480.78
2024-05-09T08:55:40.115Z,101477.00
2024-05-09T08:58:12.540Z,101482.91
2024-05-09T09:00:41.960Z,101475.31
2024-05-09T09:03:11.324Z,101477.41
2024-05-09T09:05:40.059Z,101474.78
2024-05-09T09:08:08.603Z,101467.81
2024-05-09T09:10:39.556Z,101465.88
2024-05-09T09:13:09.569Z,101470.50
2024-05-09T09:15:47.436Z,101466.88
2024-05-09T09:18:16.084Z,101469.88
2024-05-09T09:20:43.982Z,101471.19
2024-05-09T09:23:10.941Z,101455.94
2024-05-09T09:25:41.231Z,101472.31
2024-05-09T09:28:08.962Z,101467.38
2024-05-09T09:30:42.913Z,101456.50
2024-05-09T09:33:10.817Z,101456.78
2024-05-09T09:35:39.953Z,101467.09
2024-05-09T09:38:08.134Z,101462.25
2024-05-09T09:40:40.888Z,101466.00
2024-05-09T09:43:18.597Z,101449.22
2024-05-09T09:45:48.587Z,101453.84
2024-05-09T09:48:16.555Z,101462.59
2024-05-09T09:50:44.001Z,101453.03
2024-05-09T09:53:12.596Z,101457.44
2024-05-09T09:55:40.421Z,101456.47
2024-05-09T09:58:10.839Z,101449.03
2024-05-09T10:00:39.351Z,101455.31
2024-05-09T10:03:06.772Z,101446.75
2024-05-09T10:05:34.447Z,101448.03
2024-05-09T10:08:05.548Z,101449.13
2024-05-09T10:10:35.176Z,101450.00
2024-05-09T10:13:08.970Z,101449.72
2024-05-09T10:15:46.198Z,101436.59
2024-05-09T10:18:14.006Z,101440.38
2024-05-09T10:20:49.251Z,101438.72
2024-05-09T10:23:30.494Z,101431.69
2024-05-09T10:26:06.238Z,101438.31
2024-05-09T10:28:39.117Z,101437.41
2024-05-09T10:31:13.869Z,101430.38
2024-05-09T10:33:50.204Z,101437.69
2024-05-09T10:36:22.963Z,101433.50
2024-05-09T10:38:50.878Z,101422.56
2024-05-09T10:41:18.731Z,101428.00
2024-05-09T10:43:46.623Z,101421.53
2024-05-09T10:46:14.827Z,101427.50
2024-05-09T10:48:43.244Z,101413.81
2024-05-09T10:51:10.463Z,101417.59
2024-05-09T10:53:42.232Z,101410.72
2024-05-09T10:56:09.332Z,101416.47
2024-05-09T10:58:36.814Z,101414.03
2024-05-09T11:01:07.025Z,101403.41
2024-05-09T11:03:35.733Z,101397.94
2024-05-09T11:06:03.434Z,101398.44
2024-05-09T11:08:32.637Z,101401.06
2024-05-09T11:11:00.266Z,101393.69
2024-05-09T11:13:34.892Z,101391.44
2024-05-09T11:16:02.911Z,101396.56
2024-05-09T11:18:35.526Z,101388.56
2024-05-09T11:21:12.586Z,101394.25
2024-05-09T11:23:40.246Z,101392.59
2024-05-09T11:26:07.524Z,101382.53
2024-05-09T11:28:35.949Z,101380.03
2024-05-09T11:31:07.569Z,101376.97
2024-05-09T11:33:43.810Z,101370.41
2024-05-09T11:36:11.912Z,101384.88
2024-05-09T11:38:38.941Z,101372.31
2024-05-09T11:41:06.401Z,101368.59
2024-05-09T11:43:33.495Z,101371.59
2024-05-09T11:46:02.630Z,101377.53
2024-05-09T11:48:30.051Z,101373.22
2024-05-09T11:50:57.156Z,101372.31
2024-05-09T11:53:24.207Z,101365.47
2024-05-09T11:55:51.100Z,101360.34
2024-05-09T11:58:19.082Z,101365.03
2024-05-09T12:00:47.140Z,101356.03
2024-05-09T12:03:14.749Z,101352.03
2024-05-09T12:05:42.287Z,101352.19
2024-05-09T12:08:11.896Z,101351.88
2024-05-09T12:10:38.902Z,101361.75
2024-05-09T12:13:07.210Z,101343.19
2024-05-09T12:15:38.564Z,101346.19
2024-05-09T12:18:09.262Z,101336.91
2024-05-09T12:20:39.188Z,101330.34
2024-05-09T12:23:10.207Z,101324.91
2024-05-09T12:25:39.892Z,101334.72
2024-05-09T12:28:08.269Z,101327.63
2024-05-09T12:30:39.714Z,101327.09
2024-05-09T12:33:09.843Z,101320.59
2024-05-09T12:35:38.579Z,101321.03
2024-05-09T12:38:05.535Z,101317.50
2024-05-09T12:40:36.797Z,101311.97
2024-05-09T12:43:21.273Z,101313.63
2024-05-09T12:45:48.438Z,101308.38
2024-05-09T12:48:15.456Z,101306.50
2024-05-09T12:50:43.117Z,101305.34
2024-05-09T12:53:10.243Z,101301.34
2024-05-09T12:55:44.854Z,101308.06
2024-05-09T12:58:22.402Z,101303.81
2024-05-09T13:00:51.667Z,101302.78
2024-05-09T13:03:18.893Z,101291.56
2024-05-09T13:05:49.102Z,101287.41
2024-05-09T13:08:19.805Z,101290.09
2024-05-09T13:10:47.965Z,101277.53
2024-05-09T13:13:17.599Z,101280.69
2024-05-09T13:15:44.618Z,101271.28
2024-05-09T13:18:17.326Z,101281.16
2024-05-09T13:20:47.515Z,101276.03
2024-05-09T13:23:15.295Z,101273.66
2024-05-09T13:25:46.501Z,101284.16
2024-05-09T13:28:17.028Z,101277.19
2024-05-09T13:30:46.557Z,101270.13
2024-05-09T13:33:16.410Z,101268.13
2024-05-09T13:35:47.419Z,101267.72
2024-05-09T13:38:24.994Z,101261.34
2024-05-09T13:40:55.004Z,101255.81
2024-05-09T13:43:23.441Z,101254.31
2024-05-09T13:45:50.564Z,101246.66
2024-05-09T13:48:21.853Z,101243.88
2024-05-09T13:50:49.318Z,101235.16
2024-05-09T13:53:16.171Z,101245.97
2024-05-09T13:55:46.283Z,101234.69
2024-05-09T13:58:13.776Z,101236.66
2024-05-09T14:00:47.361Z,101241.59
2024-05-09T14:03:18.214Z,101234.44
2024-05-09T14:05:47.271Z,101231.53
2024-05-09T14:08:15.984Z,101228.09
2024-05-09T14:10:47.061Z,101223.44
2024-05-09T14:13:16.159Z,101218.75
2024-05-09T14:15:47.149Z,101215.38
2024-05-09T14:18:14.776Z,101214.66
2024-05-09T14:20:43.350Z,101215.03
2024-05-09T14:23:11.791Z,101222.19
2024-05-09T14:25:42.518Z,101210.50
2024-05-09T14:28:14.112Z,101208.09
2024-05-09T14:30:47.635Z,101196.72
2024-05-09T14:33:26.475Z,101190.69
2024-05-09T14:35:53.833Z,101195.38
2024-05-09T14:38:26.082Z,101196.13
2024-05-09T14:40:56.328Z,101191.53
2024-05-09T14:43:24.014Z,101185.16
2024-05-09T14:45:53.566Z,101191.47
2024-05-09T14:48:22.685Z,101203.75
2024-05-09T14:50:49.753Z,101198.53
2024-05-09T14:53:18.025Z,101190.75
2024-05-09T14:55:57.947Z,101198.97
2024-05-09T14:58:27.240Z,101188.31
2024-05-09T15:00:59.119Z,101184.75
2024-05-09T15:03:27.251Z,101184.81
2024-05-09T15:05:58.793Z,101183.44
2024-05-09T15:08:26.115Z,101174.25
2024-05-09T15:10:53.209Z,101169.56
2024-05-09T15:13:20.876Z,101161.03
2024-05-09T15:15:48.590Z,101163.09
2024-05-09T15:18:16.318Z,101172.38
2024-05-09T15:20:47.176Z,101174.53
2024-05-09T15:23:14.615Z,101165.56
2024-05-09T15:25:41.462Z,101172.38
2024-05-09T15:28:08.779Z,101176.78
2024-05-09T15:30:36.569Z,101163.56
2024-05-09T15:33:07.914Z,101158.06
2024-05-09T15:35:41.041Z,101137.97
2024-05-09T15:38:09.466Z,101135.50
2024-05-09T15:40:39.970Z,101131.13
2024-05-09T15:43:10.940Z,101124.31
2024-05-09T15:45:40.939Z,101131.78
2024-05-09T15:48:09.468Z,101129.16
2024-05-09T15:50:40.702Z,101121.91
2024-05-09T15:53:10.972Z,101126.91
2024-05-09T15:55:38.783Z,101125.69
2024-05-09T15:58:07.042Z,101128.88
2024-05-09T16:00:39.293Z,101127.13
2024-05-09T16:03:10.273Z,101118.28
2024-05-09T16:05:37.889Z,101118.97
2024-05-09T16:08:06.496Z,101119.19
2024-05-09T16:10:35.595Z,101118.38
2024-05-09T16:13:04.065Z,101119.00
2024-05-09T16:15:31.737Z,101120.31
2024-05-09T16:18:01.429Z,101116.66
2024-05-09T16:20:37.895Z,101122.53
2024-05-09T16:23:08.305Z,101114.94
2024-05-09T16:25:35.773Z,101114.03
2024-05-09T16:28:07.429Z,101115.56
2024-05-09T16:30:37.447Z,101119.88
2024-05-09T16:33:05.513Z,101118.66
2024-05-09T16:35:34.306Z,101112.28
2024-05-09T16:38:02.638Z,101112.69
2024-05-09T16:40:37.667Z,101112.56
2024-05-09T16:43:12.039Z,101097.50
2024-05-09T16:45:41.080Z,101101.88
2024-05-09T16:48:10.045Z,101101.19
2024-05-09T16:50:37.599Z,101104.09
2024-05-09T16:53:06.175Z,101103.31
2024-05-09T16:55:34.951Z,101109.28
2024-05-09T16:58:03.245Z,101100.75
2024-05-09T17:00:38.861Z,101104.88
2024-05-09T17:03:11.236Z,101097.03
2024-05-09T17:05:42.760Z,101100.53
2024-05-09T17:08:22.032Z,101107.44
2024-05-09T17:10:55.783Z,101099.47
2024-05-09T17:13:25.074Z,101105.91
2024-05-09T17:15:52.115Z,101103.50
2024-05-09T17:18:19.453Z,101101.78
2024-05-09T17:20:46.571Z,101104.44
2024-05-09T17:23:14.291Z,101103.69
2024-05-09T17:25:41.790Z,101098.78
2024-05-09T17:28:09.722Z,101100.78
2024-05-09T17:30:39.015Z,101103.06
2024-05-09T17:33:09.609Z,101098.91
2024-05-09T17:35:38.215Z,101106.97
2024-05-09T17:40:35.722Z,101099.19
2024-05-09T17:43:09.386Z,101100.94
2024-05-09T17:45:40.545Z,101103.09
2024-05-09T17:48:10.362Z,101104.38
2024-05-09T17:50:38.742Z,101109.16
2024-05-09T17:53:08.669Z,101103.03
2024-05-09T17:55:36.159Z,101109.00
2024-05-09T17:58:05.097Z,101104.50
2024-05-09T18:00:38.258Z,101099.72
2024-05-09T18:03:11.084Z,101095.47
2024-05-09T18:05:39.093Z,101108.19
2024-05-09T18:08:06.988Z,101105.25
2024-05-09T18:10:41.207Z,101104.88
2024-05-09T18:13:10.782Z,101104.50
2024-05-09T18:15:45.336Z,101107.16
2024-05-09T18:18:13.118Z,101097.44
2024-05-09T18:20:46.181Z,101103.25
2024-05-09T18:23:22.280Z,101103.84
2024-05-09T18:25:54.879Z,101103.25
2024-05-09T18:28:23.357Z,101099.28
2024-05-09T18:30:51.181Z,101100.69
2024-05-09T18:33:26.937Z,101113.22
2024-05-09T18:35:56.043Z,101113.84
2024-05-09T18:38:30.016Z,101110.81
2024-05-09T18:40:59.354Z,101115.75
2024-05-09T18:43:31.677Z,101117.88
2024-05-09T18:46:06.511Z,101123.66
2024-05-09T18:48:34.433Z,101122.50
2024-05-09T18:51:05.594Z,101118.84
2024-05-09T18:53:32.985Z,101125.94
2024-05-09T18:56:02.489Z,101134.47
2024-05-09T18:58:32.566Z,101127.72
2024-05-09T19:01:01.615Z,101136.91
2024-05-09T19:03:32.346Z,101126.03
2024-05-09T19:06:07.059Z,101132.53
2024-05-09T19:08:35.856Z,101135.94
2024-05-09T19:11:08.771Z,101130.03
2024-05-09T19:13:36.457Z,101142.28
2024-05-09T19:16:07.061Z,101142.06
2024-05-09T19:18:34.260Z,101143.03
2024-05-09T19:21:07.781Z,101141.59
2024-05-09T19:23:41.042Z,101139.25
2024-05-09T19:26:20.167Z,101145.59
2024-05-09T19:28:59.035Z,101145.84
2024-05-09T19:31:28.902Z,101147.88
2024-05-09T19:33:58.232Z,101156.06
2024-05-09T19:36:26.736Z,101155.91
2024-05-09T19:38:53.772Z,101155.97
2024-05-09T19:41:22.628Z,101152.13
2024-05-09T19:43:52.272Z,101157.38
2024-05-09T19:46:22.208Z,101155.44
2024-05-09T19:48:49.568Z,101152.66
2024-05-09T19:51:20.111Z,101151.34
2024-05-09T19:53:50.758Z,101146.16
2024-05-09T19:56:23.140Z,101147.88
2024-05-09T19:58:50.054Z,101154.94
2024-05-09T20:01:17.747Z,101154.41
2024-05-09T20:03:45.166Z,101151.84
2024-05-09T20:06:16.571Z,101158.38
2024-05-09T20:08:44.804Z,101154.41
2024-05-09T20:11:13.793Z,101154.94
2024-05-09T20:13:46.805Z,101158.78
2024-05-09T20:16:22.219Z,101149.50
2024-05-09T20:18:58.972Z,101158.88
2024-05-09T20:21:25.894Z,101153.47
2024-05-09T20:24:06.042Z,101160.09
2024-05-09T20:26:35.869Z,101161.16
2024-05-09T20:29:06.403Z,101168.50
2024-05-09T20:31:35.780Z,101167.69
2024-05-09T20:34:04.476Z,101161.88
2024-05-09T20:36:32.543Z,101165.03
2024-05-09T20:39:07.219Z,101174.97
2024-05-09T20:41:44.261Z,101173.13
2024-05-09T20:44:11.566Z,101166.88
2024-05-09T20:46:42.409Z,101159.03
2024-05-09T20:49:11.709Z,101169.16
2024-05-09T20:51:39.812Z,101162.44
2024-05-09T20:54:07.126Z,101168.44
2024-05-09T20:56:39.750Z,101164.94
2024-05-09T20:59:08.112Z,101169.13
2024-05-09T21:01:35.051Z,101166.88
2024-05-09T21:04:06.937Z,101164.34
2024-05-09T21:06:41.013Z,101164.78
2024-05-09T21:09:08.047Z,101161.84
2024-05-09T21:11:34.937Z,101166.53
2024-05-09T21:14:02.091Z,101167.44
2024-05-09T21:16:29.333Z,101166.34
2024-05-09T21:18:59.184Z,101165.78
2024-05-09T21:21:40.298Z,101166.38
2024-05-09T21:24:10.422Z,101167.19
2024-05-09T21:26:37.408Z,101163.72
2024-05-09T21:29:04.286Z,101163.47
2024-05-09T21:31:33.872Z,101164.28
2024-05-09T21:34:00.917Z,101168.09
2024-05-09T21:36:28.274Z,101158.81
2024-05-09T21:38:55.170Z,101157.50
2024-05-09T21:41:24.646Z,101162.41
2024-05-09T21:43:51.714Z,101158.03
2024-05-09T21:46:18.699Z,101160.19
2024-05-09T21:48:46.797Z,101157.22
2024-05-09T21:51:16.549Z,101155.31
2024-05-09T21:53:43.444Z,101149.34
2024-05-09T21:56:10.329Z,101145.00
2024-05-09T21:58:37.261Z,101144.19
2024-05-09T22:01:05.858Z,101144.16
2024-05-09T22:03:33.068Z,101139.81
2024-05-09T22:06:00.535Z,101148.53
2024-05-09T22:08:27.479Z,101146.88
2024-05-09T22:10:54.723Z,101146.09
2024-05-09T22:13:22.125Z,101146.91
2024-05-09T22:15:49.163Z,101142.28
2024-05-09T22:18:16.409Z,101149.38
2024-05-09T22:20:45.539Z,101157.53
2024-05-09T22:23:14.091Z,101157.25
2024-05-09T22:25:41.164Z,101147.47
2024-05-09T22:28:08.508Z,101154.00
2024-05-09T22:30:38.936Z,101144.75
2024-05-09T22:33:08.793Z,101149.09
2024-05-09T22:35:37.067Z,101146.09
2024-05-09T22:38:04.501Z,101155.63
2024-05-09T22:40:42.191Z,101152.34
2024-05-09T22:43:17.430Z,101149.38
2024-05-09T22:45:45.153Z,101151.81
2024-05-09T22:48:12.156Z,101156.72
2024-05-09T22:50:40.347Z,101142.56
2024-05-09T22:53:07.335Z,101143.66
2024-05-09T22:55:34.146Z,101139.28
2024-05-09T22:58:01.237Z,101141.75
2024-05-09T23:00:31.781Z,101145.78
2024-05-09T23:03:01.346Z,101144.19
2024-05-09T23:05:28.838Z,101136.81
2024-05-09T23:07:56.054Z,101139.81
2024-05-09T23:10:31.032Z,101140.34
2024-05-09T23:13:02.670Z,101140.38
2024-05-09T23:15:29.939Z,101132.97
2024-05-09T23:17:58.111Z,101131.63
2024-05-09T23:20:33.940Z,101138.69
2024-05-09T23:23:06.362Z,101130.28
2024-05-09T23:25:33.434Z,101137.88
2024-05-09T23:28:00.443Z,101143.91
2024-05-09T23:30:34.860Z,101140.91
2024-05-09T23:33:06.158Z,101145.81
2024-05-09T23:35:33.285Z,101143.09
2024-05-09T23:38:00.158Z,101144.22
2024-05-09T23:40:37.319Z,101135.47
2024-05-09T23:43:08.237Z,101146.09
2024-05-09T23:45:35.472Z,101146.81
2024-05-09T23:48:03.078Z,101147.06
2024-05-09T23:50:35.720Z,101140.72
2024-05-09T23:53:07.243Z,101140.78
2024-05-09T23:55:35.395Z,101136.16
2024-05-09T23:58:02.408Z,101135.06
